Ayr Dpi Research Station, Queensland

2:37 PM EST on August 28, 2014 (GMT +1000)
Home Hill | Change Station
CLOSE
Current Station
Personal Weather Station
Location: Home Hill, QUEENSLAND
Elevation: 56 ft
Nearby Weather Stations

Elev 56 ft 19.66 °S, 147.42 °E | Updated 5 seconds ago

Clear
Clear
80.8 °F
Feels Like 80 °F
N
7.6
Wind Variable Wind from East
Gusts 10.7 mph

Today
High -- | Low -- °F
--% Chance of Precip.
Yesterday
High -- | Low -- °F
Precip. -- in
6:22 AM 6:01 PM
Waxing Crescent, 6% visible
Pressure 30.01 in
Visibility -9999.0 miles
Clouds
Heat Index 80 °F
Dew Point 47 °F
Humidity 31%
Rainfall 0.00 in
Snow Depth Not available.
UV Not available.
Pollen Not available.
Air Quality Not available.
Flu Activity Not available.
METAR YBTL 280400Z 06018KT CAVOK 24/10 Q1016 NOSIG

More Conditions Fewer Conditions

Pressure 30.01 in
Visibility -9999.0 miles
Clouds
Heat Index 80 °F
Dew Point 47 °F
Humidity 31%
Rainfall 0.00 in
Snow Depth Not available.
UV Not available.
Pollen Not available.
Air Quality Not available.
Flu Activity Not available.
METAR YBTL 280400Z 06018KT CAVOK 24/10 Q1016 NOSIG

More Conditions Fewer Conditions

10-Day Weather Forecast

Almanac

Astronomy

Aug. 28, 2014 Rise Set
Actual Time 6:22 AM EST 6:01 PM EST
Civil Twilight 6:00 AM EST 6:23 PM EST
Nautical Twilight 5:34 AM EST 6:49 PM EST
Astronomical Twilight 5:09 AM EST 7:14 PM EST
Moon 7:41 AM EST 8:09 PM EST
Length of Visible Light 12h 23m
Length of Day
11h 38m
Tomorrow will be 1m 2s longer.
Waxing Crescent, 6% of the Moon is Illuminated
Today
Waxing Crescent
Sep 2
First Quarter
Sep 8
Full
Sep 15
Last Quarter
Sep 24
New

Yesterday's Extremes

Country Highs Country Lows

Community

WunderPhotos

Upload Photos

1,747,907 photos uploaded!

Nearby

Snow Depth

Not available.

Earthquake Activity

City Distance Mag. Time & Date
No recent earthquake activity has been reported nearby.
Minimum magnitude displayed is 2.5.

Coastal Water Temperatures

Place Temperature
No Stations Reporting

Nearby Weather Stations